createdAt,value
2018-08-20T00:01:21.997Z,19.40
2018-08-20T00:05:25.563Z,19.30
2018-08-20T00:09:36.351Z,19.40
2018-08-20T00:13:39.559Z,19.40
2018-08-20T00:21:45.749Z,19.40
2018-08-20T00:25:48.859Z,19.40
2018-08-20T00:29:52.078Z,19.40
2018-08-20T00:33:55.188Z,19.30
2018-08-20T00:37:58.325Z,19.40
2018-08-20T00:42:01.424Z,19.40
2018-08-20T00:46:04.693Z,19.40
2018-08-20T00:50:08.992Z,19.40
2018-08-20T00:54:12.139Z,19.40
2018-08-20T00:58:15.239Z,19.40
2018-08-20T01:02:23.854Z,19.50
2018-08-20T01:06:26.948Z,19.50
2018-08-20T01:10:30.293Z,19.60
2018-08-20T01:14:33.384Z,19.50
2018-08-20T01:18:36.587Z,19.60
2018-08-20T01:22:39.677Z,19.60
2018-08-20T01:26:42.891Z,19.60
2018-08-20T01:34:49.004Z,19.50
2018-08-20T01:38:52.106Z,19.60
2018-08-20T01:42:55.255Z,19.50
2018-08-20T01:46:58.551Z,19.50
2018-08-20T01:51:01.754Z,19.50
2018-08-20T01:55:05.140Z,19.50
2018-08-20T01:59:08.354Z,19.50
2018-08-20T02:03:11.452Z,19.60
2018-08-20T02:07:14.666Z,19.60
2018-08-20T02:11:17.787Z,19.60
2018-08-20T02:15:21.038Z,19.50
2018-08-20T02:23:27.048Z,19.60
2018-08-20T02:27:30.141Z,19.50
2018-08-20T02:31:33.292Z,19.50
2018-08-20T02:35:36.387Z,19.60
2018-08-20T02:39:39.622Z,19.60
2018-08-20T02:43:42.744Z,19.50
2018-08-20T02:47:46.476Z,19.60
2018-08-20T02:51:50.419Z,19.50
2018-08-20T02:55:53.649Z,19.50
2018-08-20T02:59:56.744Z,19.60
2018-08-20T03:03:59.956Z,19.50
2018-08-20T03:08:03.176Z,19.60
2018-08-20T03:12:06.396Z,19.50
2018-08-20T03:16:09.501Z,19.60
2018-08-20T03:20:12.717Z,19.50
2018-08-20T03:24:15.815Z,19.50
2018-08-20T03:28:19.073Z,19.50
2018-08-20T03:32:22.197Z,19.50
2018-08-20T03:36:25.504Z,19.50
2018-08-20T03:40:28.604Z,19.50
2018-08-20T03:44:31.728Z,19.50
2018-08-20T03:48:35.021Z,19.50
2018-08-20T03:52:38.233Z,19.60
2018-08-20T03:56:41.320Z,19.60
2018-08-20T04:00:44.469Z,19.60
2018-08-20T04:04:47.606Z,19.60
2018-08-20T04:08:50.836Z,19.60
2018-08-20T04:12:53.936Z,19.60
2018-08-20T04:16:57.359Z,19.60
2018-08-20T04:21:00.472Z,19.60
2018-08-20T04:25:03.877Z,19.60
2018-08-20T04:29:06.976Z,19.60
2018-08-20T04:33:10.226Z,19.60
2018-08-20T04:37:13.344Z,19.60
2018-08-20T04:41:16.472Z,19.60
2018-08-20T04:45:19.552Z,19.60
2018-08-20T04:49:22.884Z,19.60
2018-08-20T04:53:26.069Z,19.70
2018-08-20T04:57:29.185Z,19.70
2018-08-20T05:01:32.269Z,19.70
2018-08-20T05:05:35.425Z,19.70
2018-08-20T05:09:38.531Z,19.70
2018-08-20T05:13:41.752Z,19.80
2018-08-20T05:17:44.869Z,19.80
2018-08-20T05:21:48.132Z,19.80
2018-08-20T05:25:51.237Z,19.80
2018-08-20T05:29:54.508Z,19.80
2018-08-20T05:33:57.624Z,19.80
2018-08-20T05:38:00.748Z,19.80
2018-08-20T05:42:03.867Z,19.80
2018-08-20T05:50:10.101Z,19.70
2018-08-20T05:54:13.249Z,19.60
2018-08-20T05:58:16.336Z,19.50
2018-08-20T06:06:22.861Z,19.60
2018-08-20T06:10:25.981Z,19.60
2018-08-20T06:14:29.101Z,19.60
2018-08-20T06:22:35.261Z,19.40
2018-08-20T06:26:38.364Z,19.40
2018-08-20T06:30:41.472Z,19.40
2018-08-20T06:34:44.749Z,19.40
2018-08-20T06:38:47.849Z,19.40
2018-08-20T06:42:51.076Z,19.30
2018-08-20T06:46:54.181Z,19.30
2018-08-20T06:50:57.433Z,19.30
2018-08-20T06:55:00.532Z,19.30
2018-08-20T06:59:03.682Z,19.40
2018-08-20T07:03:06.784Z,19.50
2018-08-20T07:07:11.128Z,19.50
2018-08-20T07:11:14.223Z,19.50
2018-08-20T07:15:17.448Z,19.50
2018-08-20T07:19:20.580Z,19.50
2018-08-20T07:23:23.744Z,19.60
2018-08-20T07:27:26.844Z,19.50
2018-08-20T07:31:29.976Z,19.40
2018-08-20T07:35:33.065Z,19.40
2018-08-20T07:39:36.253Z,19.40
2018-08-20T07:43:39.312Z,19.30
2018-08-20T07:47:42.531Z,19.40
2018-08-20T07:51:46.107Z,19.40
2018-08-20T07:55:49.501Z,19.50
2018-08-20T07:59:52.583Z,19.60
2018-08-20T08:03:55.828Z,19.70
2018-08-20T08:07:58.917Z,19.90
2018-08-20T08:16:04.918Z,20.10
2018-08-20T08:20:09.328Z,20.20
2018-08-20T08:24:12.424Z,20.20
2018-08-20T08:28:15.543Z,20.30
2018-08-20T08:32:18.628Z,20.40
2018-08-20T08:36:21.772Z,20.40
2018-08-20T08:40:24.852Z,20.50
2018-08-20T08:44:27.996Z,20.40
2018-08-20T08:48:31.419Z,20.40
2018-08-20T08:52:34.772Z,20.30
2018-08-20T08:56:37.956Z,20.20
2018-08-20T09:00:41.241Z,20.30
2018-08-20T09:04:44.305Z,20.30
2018-08-20T09:08:47.504Z,20.30
2018-08-20T09:12:50.597Z,20.30
2018-08-20T09:16:53.701Z,20.30
2018-08-20T09:20:56.788Z,20.10
2018-08-20T09:24:59.932Z,20.00
2018-08-20T09:33:06.766Z,19.80
2018-08-20T09:37:10.009Z,19.80
2018-08-20T09:41:13.116Z,20.00
2018-08-20T09:45:16.194Z,20.00
2018-08-20T09:49:19.313Z,20.30
2018-08-20T09:53:22.568Z,20.60
2018-08-20T09:57:25.745Z,20.80
2018-08-20T10:01:28.835Z,21.10
2018-08-20T10:05:31.928Z,21.50
2018-08-20T10:09:35.018Z,21.50
2018-08-20T10:13:38.120Z,21.40
2018-08-20T10:21:44.484Z,21.00
2018-08-20T10:25:47.587Z,20.90
2018-08-20T10:37:56.771Z,20.50
2018-08-20T10:46:08.152Z,20.60
2018-08-20T10:50:15.352Z,20.60
2018-08-20T10:58:22.236Z,20.80
2018-08-20T11:10:31.924Z,21.10
2018-08-20T11:14:35.009Z,21.10
2018-08-20T11:18:38.217Z,21.10
2018-08-20T11:26:44.449Z,20.90
2018-08-20T11:30:47.540Z,21.00
2018-08-20T11:38:53.534Z,21.10
2018-08-20T11:42:56.652Z,21.10
2018-08-20T11:51:02.844Z,21.40
2018-08-20T11:55:06.100Z,21.70
2018-08-20T12:03:12.191Z,21.80
2018-08-20T12:11:18.295Z,21.80
2018-08-20T12:15:21.432Z,21.80
2018-08-20T12:23:27.444Z,21.70
2018-08-20T12:31:33.477Z,21.40
2018-08-20T12:35:36.576Z,21.30
2018-08-20T12:39:39.729Z,21.30
2018-08-20T12:51:48.581Z,21.10
2018-08-20T12:55:52.072Z,21.10
2018-08-20T12:59:57.744Z,21.10
2018-08-20T13:08:03.851Z,21.20
2018-08-20T13:12:06.986Z,21.20
2018-08-20T13:16:10.184Z,21.30
2018-08-20T13:24:16.197Z,21.80
2018-08-20T13:28:19.541Z,22.10
2018-08-20T13:32:22.652Z,22.20
2018-08-20T13:40:28.700Z,22.40
2018-08-20T13:44:31.836Z,22.60
2018-08-20T13:52:39.072Z,22.60
2018-08-20T13:56:42.409Z,22.50
2018-08-20T14:04:48.565Z,22.40
2018-08-20T14:08:51.698Z,22.10
2018-08-20T14:12:54.804Z,22.00
2018-08-20T14:16:58.030Z,22.00
2018-08-20T14:21:06.753Z,21.90
2018-08-20T14:29:12.873Z,22.20
2018-08-20T14:33:16.095Z,22.50
2018-08-20T14:41:22.229Z,22.70
2018-08-20T14:49:32.553Z,23.00
2018-08-20T14:53:35.640Z,22.80
2018-08-20T14:57:38.963Z,22.80
2018-08-20T15:01:42.060Z,22.60
2018-08-20T15:05:45.217Z,22.40
2018-08-20T15:09:48.313Z,22.40
2018-08-20T15:13:51.557Z,22.30
2018-08-20T15:21:57.669Z,22.20
2018-08-20T15:34:06.597Z,22.10
2018-08-20T15:38:09.796Z,22.00
2018-08-20T15:46:16.004Z,22.10
2018-08-20T15:50:18.978Z,22.10
2018-08-20T15:58:25.848Z,22.00
2018-08-20T16:06:31.944Z,22.00
2018-08-20T16:10:35.057Z,22.00
2018-08-20T16:22:43.928Z,21.90
2018-08-20T16:34:53.272Z,22.00
2018-08-20T16:38:56.684Z,22.10
2018-08-20T16:42:59.784Z,22.30
2018-08-20T16:51:05.929Z,22.40
2018-08-20T16:55:09.720Z,22.50
2018-08-20T16:59:12.836Z,22.50
2018-08-20T17:03:15.957Z,22.50
2018-08-20T17:11:22.588Z,22.60
2018-08-20T17:19:28.659Z,22.70
2018-08-20T17:31:39.271Z,22.40
2018-08-20T17:52:14.359Z,22.20
2018-08-20T18:00:26.902Z,22.10
2018-08-20T18:08:34.056Z,21.80
2018-08-20T18:20:47.768Z,21.60
2018-08-20T18:32:57.369Z,21.20
2018-08-20T18:37:03.012Z,21.10
2018-08-20T18:41:06.422Z,21.00
2018-08-20T18:49:12.493Z,20.80
2018-08-20T18:53:16.348Z,20.60
2018-08-20T18:57:26.051Z,20.60
2018-08-20T19:01:29.149Z,20.60
2018-08-20T19:05:43.583Z,20.50
2018-08-20T19:09:47.716Z,20.40
2018-08-20T19:13:53.086Z,20.40
2018-08-20T19:17:56.212Z,20.40
2018-08-20T19:26:02.293Z,20.40
2018-08-20T19:30:15.096Z,20.10
2018-08-20T19:34:18.201Z,20.10
2018-08-20T19:38:21.963Z,20.10
2018-08-20T19:42:32.284Z,20.00
2018-08-20T19:46:37.434Z,20.10
2018-08-20T19:50:40.528Z,20.10
2018-08-20T19:54:43.707Z,20.10
2018-08-20T19:58:46.796Z,20.10
2018-08-20T20:02:49.936Z,20.10
2018-08-20T20:06:53.060Z,20.10
2018-08-20T20:10:56.275Z,20.10
2018-08-20T20:14:59.359Z,20.10
2018-08-20T20:19:02.591Z,20.10
2018-08-20T20:23:05.836Z,20.10
2018-08-20T20:27:08.961Z,19.90
2018-08-20T20:31:12.049Z,19.90
2018-08-20T20:35:15.176Z,19.90
2018-08-20T20:39:18.268Z,19.90
2018-08-20T20:43:30.116Z,19.90
2018-08-20T20:47:33.264Z,19.80
2018-08-20T20:51:36.477Z,19.80
2018-08-20T20:55:39.568Z,19.70
2018-08-20T20:59:42.709Z,19.70
2018-08-20T21:03:45.810Z,19.60
2018-08-20T21:07:49.466Z,19.60
2018-08-20T21:11:52.568Z,19.50
2018-08-20T21:16:14.772Z,19.50
2018-08-20T21:20:17.883Z,19.40
2018-08-20T21:24:22.265Z,19.30
2018-08-20T21:28:29.744Z,19.20
2018-08-20T21:32:32.979Z,19.20
2018-08-20T21:36:36.073Z,19.10
2018-08-20T21:40:39.224Z,18.90
2018-08-20T21:44:42.432Z,18.90
2018-08-20T21:48:45.992Z,18.80
2018-08-20T21:52:49.089Z,18.80
2018-08-20T21:56:53.440Z,18.80
2018-08-20T22:00:56.645Z,18.70
2018-08-20T22:04:59.929Z,18.50
2018-08-20T22:09:03.068Z,18.50
2018-08-20T22:13:06.210Z,18.40
2018-08-20T22:17:10.164Z,18.40
2018-08-20T22:21:15.504Z,18.30
2018-08-20T22:25:18.597Z,18.30
2018-08-20T22:29:21.848Z,18.20
2018-08-20T22:33:24.944Z,18.20
2018-08-20T22:37:28.083Z,18.20
2018-08-20T22:41:31.670Z,18.10
2018-08-20T22:45:35.028Z,18.10
2018-08-20T22:49:38.125Z,18.00
2018-08-20T22:53:45.794Z,18.00
2018-08-20T22:58:00.464Z,18.00
2018-08-20T23:02:03.730Z,17.90
2018-08-20T23:06:06.864Z,17.80
2018-08-20T23:10:09.980Z,17.80
2018-08-20T23:14:13.080Z,17.80
2018-08-20T23:22:19.060Z,17.70
2018-08-20T23:26:22.280Z,17.70
2018-08-20T23:34:28.372Z,17.60
2018-08-20T23:38:31.460Z,17.60
2018-08-20T23:42:34.700Z,17.50
2018-08-20T23:46:39.969Z,17.40
2018-08-20T23:50:47.136Z,17.40
2018-08-20T23:54:50.237Z,17.30
2018-08-20T23:58:53.336Z,17.20
